4XCGI LLHZ-LLHZ

Flight info

Callsign 4XCGI
Flight time 0h 2m
Altitude 800
Route LLHZ
Aircraft C172/L-VD/A

Departure

Time 2026-04-20 18:10
Airport Herzliya Airport (LLHZ)

Arrival

Time 2026-04-20 18:12
Airport Herzliya Airport (LLHZ)
Time Latitude Longitude Altitude Speed Heading
2026-04-20 18:06 32.17951 34.83559 108 ft 0 kts 14°
2026-04-20 18:08 32.17954 34.83566 108 ft 7 kts 88°
2026-04-20 18:08 32.17936 34.83655 112 ft 17 kts 109°
2026-04-20 18:08 32.17905 34.83760 117 ft 12 kts 110°
2026-04-20 18:08 32.17879 34.83851 120 ft 9 kts 71°
2026-04-20 18:09 32.17890 34.83862 117 ft 0 kts 11°
2026-04-20 18:09 32.17919 34.83838 119 ft 23 kts 282°
2026-04-20 18:09 32.18023 34.83481 111 ft 71 kts 287°
2026-04-20 18:09 32.18231 34.82912 319 ft 74 kts 315°
2026-04-20 18:10 32.18750 34.82978 442 ft 92 kts 15°
2026-04-20 18:10 32.19139 34.83423 731 ft 81 kts 109°
2026-04-20 18:10 32.18816 34.84071 692 ft 94 kts 126°
2026-04-20 18:10 32.18628 34.84692 873 ft 87 kts 90°
2026-04-20 18:11 32.18546 34.85359 984 ft 75 kts 124°
2026-04-20 18:11 32.18065 34.85609 796 ft 85 kts 179°
2026-04-20 18:11 32.17713 34.85235 665 ft 67 kts 242°
2026-04-20 18:11 32.17640 34.84731 483 ft 61 kts 302°
2026-04-20 18:12 32.17803 34.84251 296 ft 69 kts 285°
2026-04-20 18:12 32.17939 34.83766 124 ft 51 kts 295°
2026-04-20 18:12 32.18040 34.83434 104 ft 36 kts 283°
2026-04-20 18:12 32.18130 34.83133 96 ft 31 kts 289°
2026-04-20 18:13 32.18112 34.83066 97 ft 5 kts 147°
2026-04-20 18:13 32.18104 34.83080 97 ft 0 kts 115°